createdAt,value
2023-04-05T00:05:54.858Z,100077.54
2023-04-05T00:16:01.389Z,100069.09
2023-04-05T00:26:07.305Z,100056.73
2023-04-05T00:36:14.869Z,100047.34
2023-04-05T00:46:20.832Z,100035.27
2023-04-05T00:56:28.326Z,100019.96
2023-04-05T01:07:00.896Z,100015.93
2023-04-05T01:17:09.856Z,100011.85
2023-04-05T01:27:20.962Z,100006.64
2023-04-05T01:37:31.946Z,99997.44
2023-04-05T01:47:37.720Z,99989.78
2023-04-05T01:57:43.845Z,99986.77
2023-04-05T02:07:49.527Z,99984.57
2023-04-05T02:17:55.392Z,99982.17
2023-04-05T02:28:01.199Z,99982.65
2023-04-05T02:38:07.656Z,99985.61
2023-04-05T02:48:13.317Z,99982.83
2023-04-05T02:58:19.076Z,99978.36
2023-04-05T03:08:24.863Z,99980.71
2023-04-05T03:18:30.956Z,99982.58
2023-04-05T03:28:36.945Z,99983.28
2023-04-05T03:38:45.033Z,99992.41
2023-04-05T03:48:50.731Z,99997.61
2023-04-05T03:58:56.767Z,100006.20
2023-04-05T04:09:02.729Z,100008.52
2023-04-05T04:19:08.443Z,100012.10
2023-04-05T04:29:16.357Z,100016.02
2023-04-05T04:39:26.757Z,100016.45
2023-04-05T04:49:33.221Z,100017.60
2023-04-05T04:59:38.910Z,100016.45
2023-04-05T05:09:43.192Z,100017.27
2023-04-05T05:19:49.092Z,100014.15
2023-04-05T05:29:54.839Z,100014.90
2023-04-05T05:40:01.030Z,100008.98
2023-04-05T05:50:09.267Z,100015.37
2023-04-05T06:00:17.400Z,100017.46
2023-04-05T06:10:24.726Z,100017.11
2023-04-05T06:20:30.578Z,100008.96
2023-04-05T06:30:38.569Z,100001.70
2023-04-05T06:40:43.178Z,100002.40
2023-04-05T06:50:49.220Z,100011.60
2023-04-05T07:00:55.915Z,100001.53
2023-04-05T07:11:01.653Z,99985.58
2023-04-05T07:21:07.746Z,99983.67
2023-04-05T07:31:15.889Z,99979.77
2023-04-05T07:41:23.645Z,99976.36
2023-04-05T07:51:29.573Z,99974.14
2023-04-05T08:01:35.451Z,99972.86
2023-04-05T08:11:41.712Z,99970.22
2023-04-05T08:21:47.512Z,99973.89
2023-04-05T08:31:53.574Z,99974.25
2023-04-05T08:42:05.112Z,99966.14
2023-04-05T08:52:11.652Z,99970.73
2023-04-05T09:02:23.116Z,99982.06
2023-04-05T09:12:29.427Z,99993.22
2023-04-05T09:22:45.435Z,99992.73
2023-04-05T09:32:55.140Z,100001.13
2023-04-05T09:43:01.627Z,100000.14
2023-04-05T09:53:15.994Z,99998.54
2023-04-05T10:03:22.262Z,99997.80
2023-04-05T10:13:29.027Z,99990.31
2023-04-05T10:23:39.220Z,99982.02
2023-04-05T10:33:47.824Z,99989.02
2023-04-05T10:43:57.897Z,99985.42
2023-04-05T10:54:04.032Z,99979.48
2023-04-05T11:04:20.592Z,99969.79
2023-04-05T11:14:36.013Z,99967.39
2023-04-05T11:24:56.945Z,99962.81
2023-04-05T11:35:07.709Z,99953.34
2023-04-05T11:45:13.670Z,99949.69
2023-04-05T11:55:31.663Z,99950.25
2023-04-05T12:05:50.373Z,99948.58
2023-04-05T12:15:58.376Z,99943.24
2023-04-05T12:26:05.795Z,99935.08
2023-04-05T12:36:11.775Z,99933.72
2023-04-05T12:46:20.492Z,99934.48
2023-04-05T12:56:29.400Z,99937.55
2023-04-05T13:06:35.532Z,99935.75
2023-04-05T13:16:41.595Z,99934.40
2023-04-05T13:26:47.347Z,99931.33
2023-04-05T13:36:53.162Z,99927.00
2023-04-05T13:46:59.061Z,99921.80
2023-04-05T13:57:05.744Z,99919.34
2023-04-05T14:07:14.848Z,99919.41
2023-04-05T14:17:20.868Z,99926.77
2023-04-05T14:27:29.281Z,99925.88
2023-04-05T14:37:35.313Z,99925.08
2023-04-05T14:47:41.759Z,99935.29
2023-04-05T14:57:47.893Z,99934.91
2023-04-05T15:07:53.872Z,99944.50
2023-04-05T15:17:59.733Z,99954.27
2023-04-05T15:28:07.035Z,99953.27
2023-04-05T15:38:11.388Z,99953.51
2023-04-05T15:48:17.586Z,99958.42
2023-04-05T15:58:23.520Z,99960.20
2023-04-05T16:08:29.266Z,99959.84
2023-04-05T16:18:34.949Z,99965.85
2023-04-05T16:28:40.585Z,99958.73
2023-04-05T16:38:47.509Z,99968.98
2023-04-05T16:48:53.342Z,99973.21
2023-04-05T16:59:05.033Z,99976.25
2023-04-05T17:09:12.582Z,99981.57
2023-04-05T17:19:18.606Z,99988.91
2023-04-05T17:29:24.369Z,99994.44
2023-04-05T17:39:30.219Z,100007.23
2023-04-05T17:49:37.740Z,100011.48
2023-04-05T17:59:43.790Z,100024.77
2023-04-05T18:09:49.829Z,100035.98
2023-04-05T18:19:55.681Z,100045.87
2023-04-05T18:30:01.511Z,100050.41
2023-04-05T18:40:09.618Z,100058.36
2023-04-05T18:50:15.675Z,100071.55
2023-04-05T19:00:22.300Z,100075.64
2023-04-05T19:10:28.099Z,100083.28
2023-04-05T19:20:34.359Z,100087.35
2023-04-05T19:30:41.723Z,100084.25
2023-04-05T19:40:47.591Z,100085.33
2023-04-05T19:50:57.726Z,100084.23
2023-04-05T20:01:03.564Z,100087.89
2023-04-05T20:11:14.263Z,100077.27
2023-04-05T20:21:20.895Z,100076.88
2023-04-05T20:31:29.557Z,100064.23
2023-04-05T20:41:36.265Z,100060.16
2023-04-05T20:51:43.217Z,100056.58
2023-04-05T21:01:49.484Z,100054.95
2023-04-05T21:11:55.328Z,100056.87
2023-04-05T21:22:00.973Z,100059.35
2023-04-05T21:32:07.376Z,100060.08
2023-04-05T21:42:13.124Z,100058.20
2023-04-05T21:52:18.884Z,100055.13
2023-04-05T22:02:24.712Z,100054.92
2023-04-05T22:12:29.246Z,100047.73
2023-04-05T22:22:34.960Z,100053.92
2023-04-05T22:32:41.015Z,100056.67
2023-04-05T22:42:46.582Z,100062.36
2023-04-05T22:52:52.500Z,100067.84
2023-04-05T23:02:58.253Z,100068.59
2023-04-05T23:13:04.039Z,100064.52
2023-04-05T23:23:10.227Z,100066.09
2023-04-05T23:33:16.348Z,100056.15
2023-04-05T23:43:20.922Z,100050.85
2023-04-05T23:53:27.591Z,100045.04
